createdAt,value
2017-07-30T00:01:09.671Z,19.50
2017-07-30T00:03:37.096Z,19.50
2017-07-30T00:06:04.527Z,19.40
2017-07-30T00:08:32.712Z,19.40
2017-07-30T00:11:00.915Z,19.40
2017-07-30T00:13:28.341Z,19.40
2017-07-30T00:15:56.532Z,19.40
2017-07-30T00:18:23.959Z,19.40
2017-07-30T00:20:52.153Z,19.50
2017-07-30T00:23:19.575Z,19.40
2017-07-30T00:25:47.028Z,19.50
2017-07-30T00:28:14.468Z,19.50
2017-07-30T00:30:41.895Z,19.50
2017-07-30T00:33:09.322Z,19.60
2017-07-30T00:35:37.520Z,19.60
2017-07-30T00:38:04.949Z,19.60
2017-07-30T00:40:32.366Z,19.60
2017-07-30T00:42:59.811Z,19.60
2017-07-30T00:45:27.245Z,19.60
2017-07-30T00:47:54.685Z,19.60
2017-07-30T00:50:22.879Z,19.40
2017-07-30T00:52:50.303Z,19.40
2017-07-30T00:55:18.524Z,19.30
2017-07-30T00:57:45.964Z,19.30
2017-07-30T01:00:13.388Z,19.40
2017-07-30T01:02:40.825Z,19.30
2017-07-30T01:05:08.268Z,19.30
2017-07-30T01:07:35.696Z,19.20
2017-07-30T01:10:03.120Z,19.20
2017-07-30T01:12:31.328Z,19.20
2017-07-30T01:14:58.738Z,19.20
2017-07-30T01:17:26.167Z,19.20
2017-07-30T01:19:53.591Z,19.10
2017-07-30T01:22:21.028Z,19.00
2017-07-30T01:24:49.220Z,19.10
2017-07-30T01:27:16.657Z,19.00
2017-07-30T01:29:44.843Z,19.00
2017-07-30T01:32:12.264Z,19.00
2017-07-30T01:34:39.700Z,19.00
2017-07-30T01:37:07.127Z,19.00
2017-07-30T01:39:34.556Z,19.00
2017-07-30T01:42:01.980Z,18.90
2017-07-30T01:44:29.412Z,19.00
2017-07-30T01:46:56.835Z,19.00
2017-07-30T01:49:24.268Z,19.10
2017-07-30T01:51:51.691Z,19.10
2017-07-30T01:54:19.127Z,19.10
2017-07-30T01:56:46.582Z,19.10
2017-07-30T01:59:14.103Z,19.10
2017-07-30T02:01:42.299Z,19.10
2017-07-30T02:04:09.835Z,19.00
2017-07-30T02:06:38.035Z,19.10
2017-07-30T02:09:05.468Z,19.10
2017-07-30T02:11:33.660Z,19.00
2017-07-30T02:14:01.092Z,19.00
2017-07-30T02:16:28.512Z,19.00
2017-07-30T02:18:55.947Z,19.00
2017-07-30T02:21:23.375Z,19.00
2017-07-30T02:23:51.595Z,18.90
2017-07-30T02:26:19.028Z,18.90
2017-07-30T02:28:46.443Z,18.80
2017-07-30T02:31:13.885Z,18.90
2017-07-30T02:33:41.307Z,18.90
2017-07-30T02:36:08.736Z,18.90
2017-07-30T02:38:36.929Z,19.00
2017-07-30T02:41:04.360Z,19.00
2017-07-30T02:43:32.552Z,19.00
2017-07-30T02:45:59.984Z,19.00
2017-07-30T02:48:27.406Z,19.00
2017-07-30T02:50:54.844Z,19.00
2017-07-30T02:53:22.270Z,19.00
2017-07-30T02:55:50.476Z,19.00
2017-07-30T02:58:17.899Z,19.00
2017-07-30T03:00:46.096Z,19.00
2017-07-30T03:03:13.609Z,19.00
2017-07-30T03:05:41.040Z,19.00
2017-07-30T03:08:09.247Z,19.00
2017-07-30T03:10:36.680Z,19.00
2017-07-30T03:13:04.100Z,19.00
2017-07-30T03:15:31.527Z,19.10
2017-07-30T03:17:59.720Z,18.90
2017-07-30T03:20:27.156Z,18.90
2017-07-30T03:22:54.583Z,18.80
2017-07-30T03:25:22.015Z,18.70
2017-07-30T03:27:49.447Z,18.70
2017-07-30T03:30:16.873Z,18.60
2017-07-30T03:32:44.295Z,18.50
2017-07-30T03:35:11.785Z,18.40
2017-07-30T03:37:39.212Z,18.40
2017-07-30T03:40:06.636Z,18.40
2017-07-30T03:42:34.067Z,18.40
2017-07-30T03:45:01.492Z,18.40
2017-07-30T03:47:28.923Z,18.40
2017-07-30T03:49:56.351Z,18.40
2017-07-30T03:52:23.784Z,18.40
2017-07-30T03:54:51.227Z,18.40
2017-07-30T03:57:18.655Z,18.40
2017-07-30T03:59:48.095Z,18.40
2017-07-30T04:02:15.525Z,18.30
2017-07-30T04:04:42.951Z,18.30
2017-07-30T04:07:10.379Z,18.30
2017-07-30T04:09:37.799Z,18.30
2017-07-30T04:12:05.235Z,18.30
2017-07-30T04:14:32.659Z,18.30
2017-07-30T04:17:00.095Z,18.30
2017-07-30T04:19:28.287Z,18.30
2017-07-30T04:21:55.724Z,18.30
2017-07-30T04:24:23.156Z,18.40
2017-07-30T04:26:50.612Z,18.30
2017-07-30T04:29:18.095Z,18.40
2017-07-30T04:31:45.517Z,18.30
2017-07-30T04:34:13.017Z,18.30
2017-07-30T04:36:41.211Z,18.20
2017-07-30T04:39:08.641Z,18.20
2017-07-30T04:41:36.068Z,18.30
2017-07-30T04:44:03.515Z,18.30
2017-07-30T04:46:30.923Z,18.30
2017-07-30T04:48:59.119Z,18.40
2017-07-30T04:51:26.543Z,18.40
2017-07-30T04:53:53.980Z,18.40
2017-07-30T04:56:21.409Z,18.50
2017-07-30T04:58:48.832Z,18.50
2017-07-30T05:01:16.256Z,18.50
2017-07-30T05:03:43.691Z,18.60
2017-07-30T05:06:11.134Z,18.70
2017-07-30T05:08:38.563Z,18.70
2017-07-30T05:11:05.991Z,18.80
2017-07-30T05:13:33.423Z,18.80
2017-07-30T05:16:00.855Z,18.90
2017-07-30T05:18:28.276Z,18.90
2017-07-30T05:20:56.472Z,19.00
2017-07-30T05:23:23.899Z,19.00
2017-07-30T05:25:52.272Z,19.20
2017-07-30T05:28:19.700Z,19.20
2017-07-30T05:30:47.138Z,19.40
2017-07-30T05:33:14.560Z,19.50
2017-07-30T05:35:42.769Z,19.90
2017-07-30T05:38:10.201Z,19.90
2017-07-30T05:40:37.635Z,20.00
2017-07-30T05:43:06.397Z,20.60
2017-07-30T05:45:33.816Z,20.50
2017-07-30T05:48:01.245Z,20.80
2017-07-30T05:50:29.540Z,21.20
2017-07-30T05:52:56.960Z,21.20
2017-07-30T05:55:24.395Z,21.40
2017-07-30T05:57:51.815Z,21.60
2017-07-30T06:00:19.245Z,21.80
2017-07-30T06:02:47.441Z,22.20
2017-07-30T06:05:14.867Z,22.20
2017-07-30T06:07:43.088Z,22.40
2017-07-30T06:10:10.519Z,22.40
2017-07-30T06:12:37.941Z,22.50
2017-07-30T06:15:05.377Z,22.50
2017-07-30T06:17:32.803Z,22.50
2017-07-30T06:20:00.232Z,22.60
2017-07-30T06:22:28.428Z,22.70
2017-07-30T06:24:55.861Z,22.60
2017-07-30T06:27:24.057Z,22.70
2017-07-30T06:29:51.492Z,22.70
2017-07-30T06:32:19.688Z,22.70
2017-07-30T06:34:47.112Z,22.70
2017-07-30T06:37:14.581Z,22.80
2017-07-30T06:39:42.775Z,22.90
2017-07-30T06:42:10.213Z,22.90
2017-07-30T06:44:38.396Z,23.20
2017-07-30T06:47:05.831Z,23.20
2017-07-30T06:49:33.293Z,23.30
2017-07-30T06:52:01.489Z,23.60
2017-07-30T06:54:28.908Z,23.60
2017-07-30T06:56:56.344Z,23.70
2017-07-30T06:59:23.774Z,23.90
2017-07-30T07:01:51.216Z,24.10
2017-07-30T07:04:18.664Z,24.40
2017-07-30T07:06:46.099Z,24.70
2017-07-30T07:09:13.515Z,25.00
2017-07-30T07:11:40.952Z,25.30
2017-07-30T07:14:08.376Z,25.60
2017-07-30T07:16:35.804Z,25.80
2017-07-30T07:19:03.227Z,26.00
2017-07-30T07:21:30.656Z,26.30
2017-07-30T07:23:58.852Z,26.70
2017-07-30T07:26:26.385Z,26.70
2017-07-30T07:28:53.807Z,26.90
2017-07-30T07:31:21.264Z,27.20
2017-07-30T07:33:48.697Z,27.30
2017-07-30T07:36:16.116Z,27.40
2017-07-30T07:38:43.548Z,27.50
2017-07-30T07:41:10.971Z,27.60
2017-07-30T07:43:38.399Z,27.70
2017-07-30T07:46:05.824Z,27.80
2017-07-30T07:48:33.260Z,27.80
2017-07-30T07:51:00.689Z,28.00
2017-07-30T07:53:28.116Z,28.10
2017-07-30T07:55:55.652Z,28.50
2017-07-30T07:58:23.102Z,28.70
2017-07-30T08:00:51.380Z,28.80
2017-07-30T08:03:18.843Z,28.80
2017-07-30T08:05:47.120Z,29.20
2017-07-30T08:08:14.588Z,29.20
2017-07-30T08:10:42.776Z,29.90
2017-07-30T08:13:10.207Z,29.90
2017-07-30T08:15:37.632Z,30.20
2017-07-30T08:18:05.064Z,30.50
2017-07-30T08:20:32.508Z,30.60
2017-07-30T08:22:59.945Z,30.70
2017-07-30T08:25:28.147Z,31.30
2017-07-30T08:27:55.575Z,31.20
2017-07-30T08:30:23.772Z,31.80
2017-07-30T08:32:51.277Z,31.80
2017-07-30T08:35:18.746Z,31.80
2017-07-30T08:37:50.272Z,31.90
2017-07-30T08:40:19.226Z,31.90
2017-07-30T08:42:46.672Z,32.10
2017-07-30T08:45:14.872Z,32.20
2017-07-30T08:47:42.300Z,32.20
2017-07-30T08:50:10.669Z,32.20
2017-07-30T08:52:38.073Z,32.20
2017-07-30T08:55:05.513Z,32.20
2017-07-30T09:00:00.176Z,32.20
2017-07-30T09:02:27.585Z,32.50
2017-07-30T09:04:55.127Z,32.10
2017-07-30T09:07:25.618Z,31.50
2017-07-30T09:09:53.839Z,31.40
2017-07-30T09:12:21.273Z,31.40
2017-07-30T09:14:49.571Z,30.70
2017-07-30T09:17:17.001Z,30.70
2017-07-30T09:19:45.207Z,30.60
2017-07-30T09:22:12.628Z,30.60
2017-07-30T09:24:40.060Z,30.80
2017-07-30T09:27:07.505Z,31.00
2017-07-30T09:29:34.944Z,30.80
2017-07-30T09:32:02.360Z,30.70
2017-07-30T09:34:30.647Z,31.00
2017-07-30T09:36:58.836Z,31.00
2017-07-30T09:39:26.285Z,31.00
2017-07-30T09:41:54.528Z,31.10
2017-07-30T09:44:21.976Z,31.10
2017-07-30T09:46:49.414Z,31.30
2017-07-30T09:49:16.822Z,31.40
2017-07-30T09:51:45.084Z,31.70
2017-07-30T09:54:13.271Z,32.00
2017-07-30T09:56:41.471Z,32.20
2017-07-30T09:59:08.914Z,32.20
2017-07-30T10:01:36.351Z,32.10
2017-07-30T10:04:04.539Z,32.20
2017-07-30T10:06:32.743Z,32.20
2017-07-30T10:09:00.160Z,32.20
2017-07-30T10:11:28.356Z,33.00
2017-07-30T10:13:55.788Z,33.00
2017-07-30T10:16:27.331Z,32.70
2017-07-30T10:18:59.031Z,32.40
2017-07-30T10:21:26.460Z,32.40
2017-07-30T10:23:53.879Z,32.00
2017-07-30T10:26:21.320Z,31.70
2017-07-30T10:28:48.740Z,31.40
2017-07-30T10:31:16.173Z,31.20
2017-07-30T10:33:43.604Z,31.00
2017-07-30T10:36:11.196Z,30.70
2017-07-30T10:38:39.412Z,30.70
2017-07-30T10:41:06.847Z,30.60
2017-07-30T10:43:34.272Z,31.00
2017-07-30T10:46:01.699Z,31.40
2017-07-30T10:48:29.160Z,31.70
2017-07-30T10:50:56.572Z,31.90
2017-07-30T10:53:24.005Z,32.20
2017-07-30T10:55:54.225Z,32.40
2017-07-30T10:58:21.657Z,32.30
2017-07-30T11:00:49.083Z,32.50
2017-07-30T11:03:16.512Z,32.20
2017-07-30T11:05:43.935Z,32.50
2017-07-30T11:08:11.375Z,32.40
2017-07-30T11:10:38.864Z,31.90
2017-07-30T11:13:14.081Z,31.90
2017-07-30T11:15:41.500Z,31.80
2017-07-30T11:18:08.927Z,31.70
2017-07-30T11:20:37.120Z,31.10
2017-07-30T11:23:04.549Z,31.10
2017-07-30T11:25:32.744Z,30.80
2017-07-30T11:28:00.176Z,30.80
2017-07-30T11:30:27.607Z,30.70
2017-07-30T11:32:55.042Z,30.50
2017-07-30T11:35:23.700Z,29.90
2017-07-30T11:37:51.128Z,29.60
2017-07-30T11:40:18.579Z,29.20
2017-07-30T11:42:46.012Z,29.00
2017-07-30T11:45:13.427Z,28.70
2017-07-30T11:47:40.860Z,28.40
2017-07-30T11:50:08.280Z,28.20
2017-07-30T11:52:35.700Z,28.00
2017-07-30T11:55:03.140Z,27.90
2017-07-30T11:57:31.328Z,27.60
2017-07-30T11:59:58.763Z,27.60
2017-07-30T12:02:26.187Z,27.50
2017-07-30T12:04:53.733Z,27.20
2017-07-30T12:07:22.218Z,27.00
2017-07-30T12:09:49.667Z,27.00
2017-07-30T12:12:17.088Z,27.00
2017-07-30T12:14:44.520Z,27.00
2017-07-30T12:17:11.950Z,26.90
2017-07-30T12:19:39.371Z,27.00
2017-07-30T12:22:06.796Z,26.90
2017-07-30T12:24:34.999Z,27.00
2017-07-30T12:27:02.421Z,27.00
2017-07-30T12:29:29.859Z,27.20
2017-07-30T12:31:57.283Z,27.20
2017-07-30T12:34:24.708Z,27.10
2017-07-30T12:36:52.127Z,27.20
2017-07-30T12:42:12.488Z,27.40
2017-07-30T12:44:39.912Z,27.30
2017-07-30T12:47:07.341Z,27.30
2017-07-30T12:49:34.775Z,27.30
2017-07-30T12:52:02.208Z,27.30
2017-07-30T12:54:30.400Z,27.10
2017-07-30T12:56:57.851Z,27.10
2017-07-30T12:59:25.285Z,27.10
2017-07-30T13:01:52.704Z,27.10
2017-07-30T13:04:22.255Z,27.00
2017-07-30T13:06:49.683Z,27.00
2017-07-30T13:09:17.106Z,27.00
2017-07-30T13:11:44.541Z,26.80
2017-07-30T13:14:11.959Z,26.80
2017-07-30T13:16:41.169Z,26.80
2017-07-30T13:19:08.592Z,26.80
2017-07-30T13:21:36.027Z,26.80
2017-07-30T13:24:09.942Z,26.80
2017-07-30T13:26:37.440Z,26.80
2017-07-30T13:29:04.872Z,26.80
2017-07-30T13:31:32.308Z,26.80
2017-07-30T13:33:59.740Z,26.90
2017-07-30T13:36:27.169Z,26.80
2017-07-30T13:38:54.592Z,26.80
2017-07-30T13:41:22.024Z,26.70
2017-07-30T13:43:49.448Z,26.70
2017-07-30T13:46:17.648Z,26.60
2017-07-30T13:48:45.068Z,26.60
2017-07-30T13:51:12.501Z,26.60
2017-07-30T13:53:39.933Z,26.50
2017-07-30T13:56:07.359Z,26.40
2017-07-30T13:58:34.892Z,26.40
2017-07-30T14:01:02.368Z,26.40
2017-07-30T14:03:32.023Z,26.40
2017-07-30T14:05:59.469Z,26.40
2017-07-30T14:08:26.888Z,26.50
2017-07-30T14:10:54.315Z,26.50
2017-07-30T14:13:21.745Z,26.50
2017-07-30T14:15:52.429Z,26.50
2017-07-30T14:18:19.852Z,26.40
2017-07-30T14:20:47.281Z,26.50
2017-07-30T14:23:16.737Z,26.50
2017-07-30T14:25:44.928Z,26.30
2017-07-30T14:28:12.364Z,26.30
2017-07-30T14:30:40.320Z,26.30
2017-07-30T14:33:07.788Z,26.30
2017-07-30T14:35:35.975Z,26.20
2017-07-30T14:38:03.412Z,26.20
2017-07-30T14:40:30.840Z,26.10
2017-07-30T14:42:58.271Z,26.20
2017-07-30T14:45:25.691Z,26.20
2017-07-30T14:47:53.900Z,26.10
2017-07-30T14:50:21.321Z,26.10
2017-07-30T14:52:48.792Z,26.10
2017-07-30T14:55:16.248Z,26.10
2017-07-30T14:57:44.444Z,26.30
2017-07-30T15:00:23.106Z,26.20
2017-07-30T15:02:50.528Z,26.20
2017-07-30T15:05:17.959Z,26.30
2017-07-30T15:07:45.391Z,26.30
2017-07-30T15:10:12.868Z,26.40
2017-07-30T15:12:40.292Z,26.40
2017-07-30T15:15:09.713Z,26.40
2017-07-30T15:17:37.156Z,26.50
2017-07-30T15:20:05.558Z,26.50
2017-07-30T15:22:33.017Z,26.50
2017-07-30T15:25:04.876Z,26.50
2017-07-30T15:27:32.300Z,26.40
2017-07-30T15:29:59.792Z,26.50
2017-07-30T15:32:27.227Z,26.50
2017-07-30T15:34:54.727Z,26.50
2017-07-30T15:37:22.120Z,26.50
2017-07-30T15:39:49.562Z,26.50
2017-07-30T15:42:17.291Z,26.50
2017-07-30T15:44:52.705Z,26.50
2017-07-30T15:47:20.611Z,26.40
2017-07-30T15:49:48.049Z,26.30
2017-07-30T15:52:15.478Z,26.20
2017-07-30T15:54:44.037Z,26.20
2017-07-30T15:57:11.473Z,26.20
2017-07-30T15:59:38.896Z,26.30
2017-07-30T16:02:06.326Z,26.20
2017-07-30T16:04:33.811Z,26.20
2017-07-30T16:07:02.008Z,26.30
2017-07-30T16:09:29.435Z,26.30
2017-07-30T16:11:56.859Z,26.30
2017-07-30T16:14:24.292Z,26.40
2017-07-30T16:16:51.724Z,26.40
2017-07-30T16:19:19.156Z,26.40
2017-07-30T16:21:46.575Z,26.40
2017-07-30T16:24:14.013Z,26.50
2017-07-30T16:26:41.432Z,26.60
2017-07-30T16:29:26.356Z,26.50
2017-07-30T16:31:57.540Z,26.40
2017-07-30T16:34:24.984Z,26.40
2017-07-30T16:36:52.411Z,26.40
2017-07-30T16:39:23.880Z,26.40
2017-07-30T16:41:51.362Z,26.30
2017-07-30T16:44:18.776Z,26.30
2017-07-30T16:46:46.220Z,26.30
2017-07-30T16:49:13.648Z,26.30
2017-07-30T16:51:41.849Z,26.30
2017-07-30T16:54:09.264Z,26.30
2017-07-30T16:56:37.460Z,26.40
2017-07-30T16:59:04.893Z,26.40
2017-07-30T17:01:32.320Z,26.40
2017-07-30T17:03:59.736Z,26.40
2017-07-30T17:06:27.208Z,26.50
2017-07-30T17:08:54.630Z,26.40
2017-07-30T17:11:22.056Z,26.40
2017-07-30T17:13:49.475Z,26.40
2017-07-30T17:16:16.903Z,26.40
2017-07-30T17:18:44.325Z,26.40
2017-07-30T17:21:11.755Z,26.30
2017-07-30T17:23:39.172Z,26.30
2017-07-30T17:26:06.604Z,26.30
2017-07-30T17:28:34.032Z,26.30
2017-07-30T17:31:01.460Z,26.30
2017-07-30T17:33:28.883Z,26.30
2017-07-30T17:35:56.308Z,26.30
2017-07-30T17:38:23.731Z,26.30
2017-07-30T17:40:51.159Z,26.30
2017-07-30T17:43:18.593Z,26.40
2017-07-30T17:45:46.011Z,26.40
2017-07-30T17:48:15.476Z,26.40
2017-07-30T17:50:42.902Z,26.40
2017-07-30T17:53:10.323Z,26.40
2017-07-30T17:55:37.743Z,26.40
2017-07-30T17:58:05.955Z,26.30
2017-07-30T18:00:33.376Z,26.30
2017-07-30T18:03:00.823Z,26.30
2017-07-30T18:05:28.260Z,26.30
2017-07-30T18:07:55.698Z,26.10
2017-07-30T18:10:23.127Z,26.20
2017-07-30T18:12:50.564Z,26.20
2017-07-30T18:15:18.001Z,26.10
2017-07-30T18:17:45.436Z,26.10
2017-07-30T18:20:12.863Z,26.00
2017-07-30T18:22:40.296Z,26.00
2017-07-30T18:25:07.717Z,25.90
2017-07-30T18:27:35.168Z,25.90
2017-07-30T18:30:02.590Z,25.80
2017-07-30T18:32:30.070Z,25.80
2017-07-30T18:34:57.468Z,25.70
2017-07-30T18:37:25.676Z,25.60
2017-07-30T18:39:53.091Z,25.50
2017-07-30T18:42:20.539Z,25.50
2017-07-30T18:44:47.965Z,25.40
2017-07-30T18:47:15.392Z,25.30
2017-07-30T18:49:42.821Z,25.30
2017-07-30T18:52:11.024Z,25.20
2017-07-30T18:54:38.458Z,25.20
2017-07-30T18:57:10.000Z,25.10
2017-07-30T18:59:37.424Z,25.00
2017-07-30T19:02:04.849Z,25.00
2017-07-30T19:04:32.282Z,25.00
2017-07-30T19:06:59.704Z,25.00
2017-07-30T19:09:27.139Z,24.90
2017-07-30T19:11:54.559Z,24.80
2017-07-30T19:14:21.984Z,24.70
2017-07-30T19:16:49.415Z,24.60
2017-07-30T19:19:16.848Z,24.60
2017-07-30T19:21:44.265Z,24.40
2017-07-30T19:24:12.468Z,24.40
2017-07-30T19:26:39.895Z,24.40
2017-07-30T19:29:08.091Z,24.30
2017-07-30T19:31:35.628Z,24.30
2017-07-30T19:34:03.084Z,24.20
2017-07-30T19:36:30.507Z,24.20
2017-07-30T19:38:57.940Z,24.10
2017-07-30T19:41:25.359Z,24.00
2017-07-30T19:43:53.556Z,23.70
2017-07-30T19:46:20.976Z,23.70
2017-07-30T19:48:48.419Z,23.70
2017-07-30T19:51:15.847Z,23.60
2017-07-30T19:53:43.259Z,23.60
2017-07-30T19:56:11.456Z,23.40
2017-07-30T19:58:38.876Z,23.40
2017-07-30T20:01:06.300Z,23.30
2017-07-30T20:03:33.727Z,23.20
2017-07-30T20:06:01.151Z,23.20
2017-07-30T20:08:28.579Z,23.10
2017-07-30T20:10:56.020Z,23.00
2017-07-30T20:13:23.441Z,23.00
2017-07-30T20:15:51.699Z,23.00
2017-07-30T20:18:21.019Z,22.90
2017-07-30T20:20:49.195Z,22.90
2017-07-30T20:23:16.622Z,22.80
2017-07-30T20:25:44.088Z,22.80
2017-07-30T20:28:12.275Z,22.80
2017-07-30T20:30:39.708Z,22.80
2017-07-30T20:33:07.132Z,22.80
2017-07-30T20:35:34.560Z,22.80
2017-07-30T20:38:02.088Z,22.80
2017-07-30T20:40:29.516Z,22.70
2017-07-30T20:42:56.989Z,22.70
2017-07-30T20:45:24.420Z,22.70
2017-07-30T20:47:51.844Z,22.70
2017-07-30T20:50:19.371Z,22.60
2017-07-30T20:52:46.788Z,22.60
2017-07-30T20:55:14.237Z,22.60
2017-07-30T20:57:41.768Z,22.60
2017-07-30T21:00:10.016Z,22.50
2017-07-30T21:02:37.449Z,22.50
2017-07-30T21:05:04.874Z,22.40
2017-07-30T21:07:32.299Z,22.30
2017-07-30T21:09:59.727Z,22.20
2017-07-30T21:12:28.228Z,22.20
2017-07-30T21:14:55.652Z,22.20
2017-07-30T21:17:23.148Z,22.20
2017-07-30T21:19:51.428Z,22.20
2017-07-30T21:22:18.863Z,22.10
2017-07-30T21:24:46.267Z,22.20
2017-07-30T21:27:13.692Z,22.20
2017-07-30T21:29:41.888Z,22.20
2017-07-30T21:32:09.320Z,22.10
2017-07-30T21:34:36.750Z,22.10
2017-07-30T21:37:04.176Z,22.10
2017-07-30T21:39:31.596Z,22.10
2017-07-30T21:41:59.803Z,22.00
2017-07-30T21:44:27.212Z,22.00
2017-07-30T21:46:54.646Z,22.00
2017-07-30T21:49:22.062Z,21.90
2017-07-30T21:51:49.490Z,21.90
2017-07-30T21:54:17.693Z,21.90
2017-07-30T21:56:45.103Z,21.80
2017-07-30T21:59:12.576Z,21.80
2017-07-30T22:01:41.055Z,21.80
2017-07-30T22:04:08.479Z,21.90
2017-07-30T22:06:35.900Z,21.90
2017-07-30T22:09:03.332Z,22.00
2017-07-30T22:11:31.524Z,21.90
2017-07-30T22:13:58.956Z,21.90
2017-07-30T22:16:26.371Z,22.00
2017-07-30T22:18:53.800Z,22.10
2017-07-30T22:21:21.224Z,22.10
2017-07-30T22:23:49.421Z,22.20
2017-07-30T22:26:16.840Z,22.10
2017-07-30T22:28:44.276Z,22.20
2017-07-30T22:31:11.704Z,22.20
2017-07-30T22:33:39.143Z,22.20
2017-07-30T22:36:07.326Z,22.20
2017-07-30T22:38:34.747Z,22.20
2017-07-30T22:41:02.167Z,22.30
2017-07-30T22:43:29.601Z,22.30
2017-07-30T22:45:57.024Z,22.30
2017-07-30T22:48:24.455Z,22.30
2017-07-30T22:50:51.932Z,22.30
2017-07-30T22:53:19.359Z,22.30
2017-07-30T22:55:46.779Z,22.30
2017-07-30T22:58:14.211Z,22.30
2017-07-30T23:00:42.400Z,22.20
2017-07-30T23:03:10.591Z,22.20
2017-07-30T23:05:38.019Z,22.20
2017-07-30T23:08:06.207Z,22.20
2017-07-30T23:10:33.636Z,22.20
2017-07-30T23:13:01.055Z,22.30
2017-07-30T23:15:28.487Z,22.30
2017-07-30T23:17:55.912Z,22.30
2017-07-30T23:20:24.109Z,22.30
2017-07-30T23:22:51.531Z,22.30
2017-07-30T23:25:18.963Z,22.30
2017-07-30T23:27:47.371Z,22.20
2017-07-30T23:30:14.795Z,22.30
2017-07-30T23:32:42.219Z,22.20
2017-07-30T23:35:09.655Z,22.20
2017-07-30T23:37:37.875Z,22.20
2017-07-30T23:40:05.315Z,22.10
2017-07-30T23:42:32.739Z,22.10
2017-07-30T23:45:00.939Z,21.90
2017-07-30T23:47:28.369Z,21.90
2017-07-30T23:49:55.800Z,21.90
2017-07-30T23:52:23.220Z,21.90
2017-07-30T23:54:50.647Z,21.80
2017-07-30T23:57:18.846Z,21.70
2017-07-30T23:59:46.271Z,21.60
